Time;durP1;ratioP1;P1;durP2;ratioP2;P2;SDS_P1;SDS_P2;PMS_P1;PMS_P2;Temp;Humidity;BMP_temperature;BMP_pressure;BME280_temperature;BME280_humidity;BME280_pressure;Samples;Min_cycle;Max_cycle;Signal;HPM_P1;HPM_P2
2023/12/19 00:00:31;;;;;;;13.40;5.87;;;4.60;99.90;;;;;;5033611;28;20486;-51
2023/12/19 00:02:57;;;;;;;15.13;5.70;;;4.60;99.90;;;;;;5033272;28;20036;-52
2023/12/19 00:05:22;;;;;;;17.53;5.33;;;4.60;99.90;;;;;;5033384;28;20060;-53
2023/12/19 00:07:48;;;;;;;10.30;4.13;;;4.60;99.90;;;;;;5033035;28;20029;-52
2023/12/19 00:10:14;;;;;;;15.83;5.40;;;4.60;99.90;;;;;;5033125;28;20092;-52
2023/12/19 00:12:40;;;;;;;12.17;5.27;;;4.70;99.90;;;;;;5032964;28;20482;-53
2023/12/19 00:15:06;;;;;;;14.03;5.50;;;4.60;99.90;;;;;;5033213;28;20044;-53
2023/12/19 00:17:32;;;;;;;13.67;5.53;;;4.70;99.90;;;;;;5033036;28;20033;-52
2023/12/19 00:19:57;;;;;;;14.07;5.37;;;4.70;99.90;;;;;;5032909;28;20478;-52
2023/12/19 00:22:24;;;;;;;17.33;6.03;;;4.70;99.90;;;;;;5032936;28;20033;-53
2023/12/19 00:24:49;;;;;;;16.20;5.37;;;4.70;99.90;;;;;;5032959;28;20109;-50
2023/12/19 00:27:15;;;;;;;12.40;5.37;;;4.60;99.90;;;;;;5032905;28;20541;-50
2023/12/19 00:29:41;;;;;;;17.80;5.60;;;4.60;99.90;;;;;;5032793;28;20039;-53
2023/12/19 00:32:06;;;;;;;14.87;6.27;;;4.60;99.90;;;;;;5032766;28;20026;-53
2023/12/19 00:34:32;;;;;;;12.97;5.50;;;4.60;99.90;;;;;;5032754;28;20032;-52
2023/12/19 00:36:58;;;;;;;16.97;5.73;;;4.60;99.90;;;;;;5014699;28;20069;-50
2023/12/19 00:39:23;;;;;;;13.90;5.33;;;4.70;99.90;;;;;;5032526;28;20040;-54
2023/12/19 00:41:49;;;;;;;12.90;5.40;;;4.70;99.90;;;;;;5032579;28;20044;-53
2023/12/19 00:44:15;;;;;;;16.13;6.13;;;4.60;99.90;;;;;;5032687;28;20064;-54
2023/12/19 00:46:43;;;;;;;17.97;6.17;;;4.70;99.90;;;;;;5032596;28;20029;-53
2023/12/19 00:49:11;;;;;;;16.15;5.93;;;4.70;99.90;;;;;;5032372;28;20060;-54
2023/12/19 00:51:37;;;;;;;15.03;5.97;;;4.70;99.90;;;;;;5032164;28;20025;-54
2023/12/19 00:54:03;;;;;;;14.57;5.57;;;4.80;99.90;;;;;;5032444;28;20040;-54
2023/12/19 00:56:29;;;;;;;19.47;5.57;;;4.80;99.90;;;;;;5032566;28;20025;-49
2023/12/19 00:58:55;;;;;;;13.03;5.23;;;4.80;99.90;;;;;;5032134;28;20056;-53
2023/12/19 01:01:24;;;;;;;14.33;5.87;;;4.90;99.90;;;;;;5032550;28;20487;-53
2023/12/19 01:03:50;;;;;;;14.88;5.50;;;4.90;99.90;;;;;;5032379;28;20112;-51
2023/12/19 01:06:16;;;;;;;10.73;5.43;;;4.90;99.90;;;;;;5032275;28;20090;-51
2023/12/19 01:08:42;;;;;;;11.13;4.50;;;4.80;99.90;;;;;;5032060;28;20549;-53
2023/12/19 01:11:09;;;;;;;13.17;4.70;;;4.80;99.90;;;;;;5032222;28;20108;-52
2023/12/19 01:13:38;;;;;;;12.00;5.17;;;4.80;99.90;;;;;;5032292;28;20034;-54
2023/12/19 01:16:05;;;;;;;14.02;4.97;;;4.80;99.90;;;;;;5032303;28;20034;-53
2023/12/19 01:18:31;;;;;;;12.40;5.33;;;4.80;99.90;;;;;;5031872;28;20041;-52
2023/12/19 01:20:56;;;;;;;9.47;4.53;;;4.80;99.90;;;;;;5030842;28;20056;-53
2023/12/19 01:23:23;;;;;;;11.87;4.10;;;4.80;99.90;;;;;;5032059;28;20026;-54
2023/12/19 01:25:48;;;;;;;13.13;4.63;;;4.70;99.90;;;;;;5032100;28;20061;-51
2023/12/19 01:28:14;;;;;;;9.53;4.60;;;4.70;99.90;;;;;;5031900;28;20053;-53
2023/12/19 01:30:40;;;;;;;13.67;5.00;;;4.70;99.90;;;;;;5032000;28;20040;-49
2023/12/19 01:33:08;;;;;;;13.57;5.40;;;4.80;99.90;;;;;;5031952;28;20025;-51
2023/12/19 01:35:33;;;;;;;14.33;4.63;;;4.80;99.90;;;;;;5032001;28;20033;-52
2023/12/19 01:37:59;;;;;;;10.87;4.87;;;4.80;99.90;;;;;;5031686;28;20036;-50
2023/12/19 01:40:28;;;;;;;12.97;5.23;;;4.80;99.90;;;;;;5031754;28;20035;-54
2023/12/19 01:42:55;;;;;;;12.20;4.85;;;4.80;99.90;;;;;;5032020;28;20029;-54
2023/12/19 01:45:22;;;;;;;12.80;5.33;;;4.80;99.90;;;;;;5031974;28;20041;-54
2023/12/19 01:47:47;;;;;;;14.53;5.10;;;4.80;99.90;;;;;;5031771;28;20048;-52
2023/12/19 01:50:17;;;;;;;11.30;4.57;;;4.90;99.90;;;;;;5031880;28;20482;-53
2023/12/19 01:52:49;;;;;;;;;;;4.80;99.90;;;;;;5032431;28;20479;-53
2023/12/19 01:55:15;;;;;;;15.90;4.80;;;4.80;99.90;;;;;;5031764;28;19909;-53
2023/12/19 01:57:42;;;;;;;14.50;5.57;;;4.70;99.90;;;;;;5031616;28;20037;-52
2023/12/19 02:00:12;;;;;;;12.20;5.00;;;4.80;99.90;;;;;;5031780;28;20434;-50
2023/12/19 02:02:37;;;;;;;12.57;5.00;;;4.80;99.90;;;;;;5033294;28;20021;-51
2023/12/19 02:05:04;;;;;;;13.53;5.10;;;4.80;99.90;;;;;;5035616;28;20386;-54
2023/12/19 02:07:30;;;;;;;15.77;5.83;;;4.80;99.90;;;;;;5035417;28;20029;-50
2023/12/19 02:09:55;;;;;;;14.37;5.80;;;4.90;99.90;;;;;;5035652;28;20477;-49
2023/12/19 02:12:21;;;;;;;16.57;5.77;;;4.90;99.90;;;;;;5035564;28;20036;-49
2023/12/19 02:14:48;;;;;;;14.20;5.80;;;4.90;99.90;;;;;;5017649;28;20033;-51
2023/12/19 02:17:16;;;;;;;11.47;4.97;;;4.80;99.90;;;;;;5035333;28;20033;-51
2023/12/19 02:19:46;;;;;;;15.00;5.70;;;4.80;99.90;;;;;;5035344;28;20087;-54
2023/12/19 02:22:12;;;;;;;13.20;5.73;;;4.80;99.90;;;;;;5035107;28;20079;-51
2023/12/19 02:24:39;;;;;;;12.53;4.97;;;4.80;99.90;;;;;;5035173;28;20029;-49
2023/12/19 02:27:05;;;;;;;12.77;5.27;;;4.90;99.90;;;;;;5035066;28;20036;-52
2023/12/19 02:29:30;;;;;;;19.30;6.10;;;4.90;99.90;;;;;;5034888;28;20492;-52
2023/12/19 02:31:57;;;;;;;14.30;5.60;;;4.90;99.90;;;;;;5035086;28;20025;-52
2023/12/19 02:34:23;;;;;;;12.30;5.43;;;4.90;99.90;;;;;;5035115;28;20112;-50
2023/12/19 02:36:49;;;;;;;12.97;5.13;;;4.90;99.90;;;;;;5034939;28;20076;-52
2023/12/19 02:39:14;;;;;;;15.37;6.33;;;5.00;99.90;;;;;;5034867;28;20373;-51
2023/12/19 02:41:40;;;;;;;18.83;6.10;;;5.00;99.90;;;;;;5034839;28;20029;-53
2023/12/19 02:44:06;;;;;;;16.20;6.43;;;5.00;99.90;;;;;;5034868;28;20025;-49
2023/12/19 02:46:34;;;;;;;16.13;5.77;;;4.90;99.90;;;;;;5016993;28;20478;-49
2023/12/19 02:49:00;;;;;;;16.93;5.87;;;5.00;99.90;;;;;;5034833;28;20094;-54
2023/12/19 02:51:26;;;;;;;16.80;6.57;;;5.00;99.90;;;;;;5034681;28;20029;-51
2023/12/19 02:53:53;;;;;;;16.43;5.83;;;5.00;99.90;;;;;;5034763;28;20064;-52
2023/12/19 02:56:19;;;;;;;12.70;5.77;;;5.10;99.90;;;;;;5034691;28;20079;-51
2023/12/19 02:58:45;;;;;;;16.97;6.10;;;5.20;99.90;;;;;;5034301;28;20037;-51
2023/12/19 03:01:10;;;;;;;17.10;7.07;;;5.20;99.90;;;;;;5034583;28;20037;-54
2023/12/19 03:03:36;;;;;;;16.10;6.33;;;5.20;99.90;;;;;;5034562;28;20021;-51
2023/12/19 03:06:02;;;;;;;18.80;7.57;;;5.20;99.90;;;;;;5034471;28;20017;-52
2023/12/19 03:08:28;;;;;;;17.67;6.63;;;5.30;99.90;;;;;;5034090;28;20482;-51
2023/12/19 03:10:53;;;;;;;18.50;7.57;;;5.20;99.90;;;;;;5016450;28;20042;-53
2023/12/19 03:13:19;;;;;;;19.80;8.37;;;5.20;99.90;;;;;;5033781;28;20038;-54
2023/12/19 03:15:46;;;;;;;16.40;7.67;;;5.20;99.90;;;;;;5034324;28;20036;-53
2023/12/19 03:18:11;;;;;;;16.30;7.37;;;5.10;99.90;;;;;;5033893;28;20095;-54
2023/12/19 03:20:37;;;;;;;16.80;7.33;;;5.10;99.90;;;;;;5034191;28;20026;-52
2023/12/19 03:23:03;;;;;;;19.60;6.70;;;5.10;99.90;;;;;;5034283;28;20366;-50
2023/12/19 03:25:28;;;;;;;17.97;7.77;;;5.00;99.90;;;;;;5034259;28;20112;-51
2023/12/19 03:27:54;;;;;;;16.50;7.07;;;5.00;99.90;;;;;;5016082;28;20030;-52
2023/12/19 03:30:20;;;;;;;14.37;7.13;;;5.00;99.90;;;;;;5034023;28;20281;-51
2023/12/19 03:32:45;;;;;;;15.97;7.30;;;4.90;99.90;;;;;;5033925;28;20026;-53
2023/12/19 03:35:12;;;;;;;15.87;7.40;;;4.90;99.90;;;;;;5033994;28;20030;-54
2023/12/19 03:37:37;;;;;;;13.77;6.53;;;4.90;99.90;;;;;;5033704;28;20048;-50
2023/12/19 03:40:05;;;;;;;17.40;7.03;;;4.90;99.90;;;;;;5033634;28;20029;-53
2023/12/19 03:42:31;;;;;;;15.70;7.00;;;4.90;99.90;;;;;;5033634;28;20037;-50
2023/12/19 03:44:56;;;;;;;14.60;7.30;;;4.90;99.90;;;;;;5033818;28;20029;-49
2023/12/19 03:47:22;;;;;;;13.73;6.67;;;4.90;99.90;;;;;;5033616;28;20048;-49
2023/12/19 03:49:47;;;;;;;20.90;7.57;;;4.80;99.90;;;;;;5033659;28;20040;-51
2023/12/19 03:52:13;;;;;;;15.47;6.83;;;4.90;99.90;;;;;;5015724;28;20546;-53
2023/12/19 03:54:39;;;;;;;16.67;6.97;;;4.80;99.90;;;;;;5033639;28;20116;-49
2023/12/19 03:57:05;;;;;;;15.90;6.60;;;4.90;99.90;;;;;;5033399;28;20030;-49
2023/12/19 03:59:30;;;;;;;16.03;6.83;;;4.90;99.90;;;;;;5033290;28;20033;-49
2023/12/19 04:01:58;;;;;;;16.00;6.97;;;4.90;99.90;;;;;;5033318;28;20030;-49
2023/12/19 04:04:24;;;;;;;13.17;5.93;;;4.90;99.90;;;;;;5033419;28;20033;-49
2023/12/19 04:06:50;;;;;;;15.40;5.73;;;4.80;99.90;;;;;;5033101;28;20482;-49
2023/12/19 04:09:16;;;;;;;16.10;6.87;;;4.80;99.90;;;;;;5033244;28;20064;-50
2023/12/19 04:11:48;;;;;;;16.23;6.70;;;4.80;99.90;;;;;;5033209;28;20030;-49
2023/12/19 04:14:14;;;;;;;16.20;6.33;;;4.70;99.90;;;;;;5033281;28;20087;-51
2023/12/19 04:16:40;;;;;;;15.90;7.00;;;4.70;99.90;;;;;;5033163;28;20033;-49
2023/12/19 04:19:06;;;;;;;13.50;6.43;;;4.70;99.90;;;;;;5032966;28;20044;-51
2023/12/19 04:21:32;;;;;;;15.13;7.30;;;4.70;99.90;;;;;;5015171;28;20116;-49
2023/12/19 04:23:58;;;;;;;16.37;6.97;;;4.60;99.90;;;;;;5032864;28;20042;-50
2023/12/19 04:26:24;;;;;;;16.17;7.07;;;4.60;99.90;;;;;;5032251;28;20109;-53
2023/12/19 04:28:49;;;;;;;16.43;6.27;;;4.50;99.90;;;;;;5032713;28;20394;-50
2023/12/19 04:31:15;;;;;;;16.23;6.50;;;4.50;99.90;;;;;;5032882;28;20038;-49
2023/12/19 04:33:41;;;;;;;20.27;7.40;;;4.40;99.90;;;;;;5032733;28;20057;-50
2023/12/19 04:36:09;;;;;;;16.83;6.43;;;4.40;99.90;;;;;;5014849;28;20067;-53
2023/12/19 04:38:36;;;;;;;19.42;7.35;;;4.40;99.90;;;;;;5032457;28;20045;-54
2023/12/19 04:41:03;;;;;;;21.97;7.33;;;4.40;99.90;;;;;;5032535;28;20124;-52
2023/12/19 04:43:28;;;;;;;14.57;7.00;;;4.40;99.90;;;;;;5032674;28;20038;-52
2023/12/19 04:45:54;;;;;;;19.10;7.07;;;4.40;99.90;;;;;;5032571;28;20108;-51
2023/12/19 04:48:20;;;;;;;16.27;7.40;;;4.40;99.90;;;;;;5032316;28;20048;-52
2023/12/19 04:50:45;;;;;;;22.63;7.87;;;4.40;99.90;;;;;;5032395;28;20087;-53
2023/12/19 04:53:11;;;;;;;18.17;6.97;;;4.50;99.90;;;;;;5032606;28;20605;-53
2023/12/19 04:55:37;;;;;;;17.50;7.03;;;4.40;99.90;;;;;;5032616;28;20033;-54
2023/12/19 04:58:03;;;;;;;16.60;7.67;;;4.50;99.90;;;;;;5032191;28;20033;-53
2023/12/19 05:00:29;;;;;;;17.93;8.00;;;4.50;99.90;;;;;;5032303;28;20026;-54
2023/12/19 05:02:54;;;;;;;17.80;8.20;;;4.50;99.90;;;;;;5032409;28;20030;-55
2023/12/19 05:05:20;;;;;;;22.70;6.97;;;4.50;99.90;;;;;;5032358;28;20029;-53
2023/12/19 05:07:46;;;;;;;17.97;7.60;;;4.50;99.90;;;;;;5032231;28;20116;-54
2023/12/19 05:10:12;;;;;;;15.93;7.07;;;4.60;99.90;;;;;;5032281;28;20029;-52
2023/12/19 05:12:38;;;;;;;20.93;8.37;;;4.60;99.90;;;;;;5032224;28;20033;-49
2023/12/19 05:15:04;;;;;;;16.33;6.80;;;4.60;99.90;;;;;;5014415;28;20061;-54
2023/12/19 05:17:30;;;;;;;17.53;7.03;;;4.60;99.90;;;;;;5014136;28;20116;-50
2023/12/19 05:19:56;;;;;;;16.40;6.87;;;4.50;99.90;;;;;;5032209;28;20100;-52
2023/12/19 05:22:21;;;;;;;13.77;6.80;;;4.60;99.90;;;;;;5032061;28;20030;-53
2023/12/19 05:24:47;;;;;;;17.17;7.47;;;4.60;99.90;;;;;;5014434;28;20091;-54
2023/12/19 05:27:12;;;;;;;20.00;8.30;;;4.60;99.90;;;;;;5032017;28;20064;-54
2023/12/19 05:29:38;;;;;;;18.57;7.03;;;4.60;99.90;;;;;;5032071;28;20026;-51
2023/12/19 05:32:04;;;;;;;19.73;8.00;;;4.60;99.90;;;;;;5031966;28;20025;-53
2023/12/19 05:34:30;;;;;;;14.03;6.20;;;4.70;99.90;;;;;;5032208;28;20414;-50
2023/12/19 05:36:56;;;;;;;29.13;10.87;;;4.70;99.90;;;;;;5033995;28;20037;-51
2023/12/19 05:39:22;;;;;;;17.83;8.17;;;4.80;99.90;;;;;;5035836;28;20030;-54
2023/12/19 05:41:48;;;;;;;16.57;8.00;;;4.80;99.90;;;;;;5036055;28;20041;-54
2023/12/19 05:44:13;;;;;;;20.20;8.03;;;4.80;99.90;;;;;;5036080;28;20040;-51
2023/12/19 05:46:39;;;;;;;19.03;7.80;;;4.90;99.90;;;;;;5035775;28;20037;-54
2023/12/19 05:49:08;;;;;;;17.40;6.97;;;4.90;99.90;;;;;;5036010;28;20040;-54
2023/12/19 05:51:40;;;;;;;16.67;7.10;;;4.90;99.90;;;;;;5035677;28;20449;-53
2023/12/19 05:54:06;;;;;;;18.00;6.93;;;5.00;99.90;;;;;;5035195;28;20104;-55
2023/12/19 05:56:33;;;;;;;18.00;7.33;;;5.00;99.90;;;;;;5035519;28;20047;-52
2023/12/19 05:58:59;;;;;;;15.60;7.73;;;5.10;99.90;;;;;;5035245;28;20045;-54
2023/12/19 06:01:24;;;;;;;18.40;7.23;;;5.10;99.90;;;;;;5035181;28;20025;-52
2023/12/19 06:03:50;;;;;;;17.30;7.03;;;5.10;99.90;;;;;;5035321;28;20030;-51
2023/12/19 06:06:16;;;;;;;19.63;8.33;;;5.20;99.90;;;;;;5035435;28;20029;-51
2023/12/19 06:08:44;;;;;;;20.53;8.23;;;5.30;99.90;;;;;;5035632;28;20029;-51
2023/12/19 06:11:10;;;;;;;15.57;6.60;;;5.30;99.90;;;;;;5035220;28;20083;-54
2023/12/19 06:13:36;;;;;;;17.80;8.17;;;5.30;99.90;;;;;;5035297;28;20037;-51
2023/12/19 06:16:03;;;;;;;13.77;7.13;;;5.30;99.90;;;;;;5035437;28;20128;-55
2023/12/19 06:18:29;;;;;;;17.00;7.40;;;5.30;99.90;;;;;;5017217;28;20064;-53
2023/12/19 06:20:54;;;;;;;17.83;7.53;;;5.30;99.90;;;;;;5035353;28;20033;-51
2023/12/19 06:23:20;;;;;;;15.30;7.00;;;5.30;99.90;;;;;;5035312;28;20040;-54
2023/12/19 06:25:46;;;;;;;15.77;6.83;;;5.30;99.90;;;;;;5035174;28;20104;-52
2023/12/19 06:28:13;;;;;;;17.10;6.80;;;5.40;99.90;;;;;;5034980;28;20029;-55
2023/12/19 06:30:39;;;;;;;14.97;6.87;;;5.40;99.90;;;;;;5034955;28;20033;-53
2023/12/19 06:33:04;;;;;;;14.03;7.37;;;5.40;99.90;;;;;;5034924;28;20436;-52
2023/12/19 06:35:31;;;;;;;16.70;6.83;;;5.50;99.90;;;;;;5034982;28;20045;-55
2023/12/19 06:37:56;;;;;;;18.87;8.10;;;5.50;99.90;;;;;;5034981;28;20039;-52
2023/12/19 06:40:23;;;;;;;13.80;6.70;;;5.60;99.90;;;;;;5035012;28;20022;-50
2023/12/19 06:42:49;;;;;;;14.87;6.53;;;5.60;99.90;;;;;;5035002;28;20044;-53
2023/12/19 06:45:14;;;;;;;12.93;6.17;;;5.60;99.90;;;;;;5035025;28;20034;-54
2023/12/19 06:47:40;;;;;;;17.97;7.70;;;5.60;99.90;;;;;;5033769;28;20072;-52
2023/12/19 06:50:06;;;;;;;14.77;6.87;;;5.70;99.90;;;;;;5034842;28;20067;-52
2023/12/19 06:52:32;;;;;;;14.23;6.07;;;5.80;99.90;;;;;;5034676;28;20021;-55
2023/12/19 06:54:58;;;;;;;11.30;5.10;;;5.80;99.90;;;;;;5034618;28;20529;-55
2023/12/19 06:57:24;;;;;;;14.90;6.23;;;5.80;99.90;;;;;;5034409;28;20033;-52
2023/12/19 06:59:50;;;;;;;11.83;5.73;;;5.90;99.90;;;;;;5034382;28;20128;-55
2023/12/19 07:02:16;;;;;;;13.63;6.47;;;5.90;99.90;;;;;;5034610;28;20112;-53
2023/12/19 07:04:42;;;;;;;11.07;5.60;;;5.90;99.90;;;;;;5034695;28;20098;-52
2023/12/19 07:07:08;;;;;;;11.50;5.47;;;5.90;99.90;;;;;;5035556;28;20025;-49
2023/12/19 07:09:35;;;;;;;11.80;5.30;;;5.90;99.90;;;;;;5037823;28;20131;-50
2023/12/19 07:12:01;;;;;;;13.33;5.50;;;6.00;99.90;;;;;;5020301;28;20123;-52
2023/12/19 07:14:27;;;;;;;11.10;5.63;;;6.10;99.90;;;;;;5020693;28;20490;-53
2023/12/19 07:16:52;;;;;;;9.47;5.03;;;6.10;99.90;;;;;;5038114;28;20038;-51
2023/12/19 07:19:18;;;;;;;13.83;5.13;;;6.10;99.90;;;;;;5037597;28;20033;-49
2023/12/19 07:21:44;;;;;;;8.87;5.10;;;6.30;99.90;;;;;;5035954;28;20029;-52
2023/12/19 07:24:10;;;;;;;12.10;5.63;;;6.30;99.90;;;;;;5016423;28;20034;-53
2023/12/19 07:26:35;;;;;;;13.17;5.67;;;6.40;99.90;;;;;;5033921;28;20068;-56
2023/12/19 07:29:02;;;;;;;12.27;5.70;;;6.40;99.90;;;;;;5034028;28;20059;-51
2023/12/19 07:31:31;;;;;;;13.47;6.37;;;6.40;99.90;;;;;;5033876;28;20043;-53
2023/12/19 07:34:01;;;;;;;13.63;6.33;;;6.40;99.90;;;;;;5033899;28;20034;-54
2023/12/19 07:36:27;;;;;;;10.67;5.50;;;6.60;99.90;;;;;;5034301;28;20059;-53
2023/12/19 07:38:54;;;;;;;10.97;4.93;;;6.60;99.90;;;;;;5033616;28;20116;-54
2023/12/19 07:41:20;;;;;;;10.93;5.13;;;6.60;99.90;;;;;;5033644;28;20132;-52
2023/12/19 07:43:46;;;;;;;10.80;5.33;;;6.50;99.90;;;;;;5033555;28;20108;-53
2023/12/19 07:46:14;;;;;;;12.33;4.97;;;6.50;99.90;;;;;;5033694;28;20025;-50
2023/12/19 07:48:40;;;;;;;12.23;6.23;;;6.50;99.90;;;;;;5033542;28;20470;-54
2023/12/19 07:51:06;;;;;;;10.13;5.00;;;6.60;99.90;;;;;;5033652;28;20359;-55
2023/12/19 07:53:32;;;;;;;10.00;4.93;;;6.60;99.90;;;;;;5033607;28;20547;-54
2023/12/19 07:56:00;;;;;;;11.13;4.90;;;6.60;99.90;;;;;;5033540;28;20064;-55
2023/12/19 07:58:26;;;;;;;10.97;4.70;;;6.60;99.90;;;;;;5033205;28;20030;-55
2023/12/19 08:00:52;;;;;;;12.73;5.50;;;6.60;99.90;;;;;;5032561;28;20033;-55
2023/12/19 08:03:18;;;;;;;11.43;4.80;;;6.70;99.90;;;;;;5015687;28;20457;-51
2023/12/19 08:05:50;;;;;;;14.10;4.60;;;6.70;99.90;;;;;;5033470;28;20064;-52
2023/12/19 08:08:17;;;;;;;10.77;4.83;;;6.70;99.90;;;;;;5033096;28;20517;-55
2023/12/19 08:10:44;;;;;;;11.07;5.07;;;6.70;99.90;;;;;;5033115;28;20040;-55
2023/12/19 08:13:10;;;;;;;10.33;4.97;;;6.70;99.90;;;;;;5033208;28;20029;-56
2023/12/19 08:15:35;;;;;;;10.97;5.27;;;6.70;99.90;;;;;;5033225;28;20108;-54
2023/12/19 08:18:01;;;;;;;9.70;4.57;;;6.70;99.90;;;;;;5032851;28;20460;-55
2023/12/19 08:20:27;;;;;;;11.77;5.70;;;6.70;99.90;;;;;;5032836;28;20036;-54
2023/12/19 08:22:52;;;;;;;10.10;4.43;;;6.70;99.90;;;;;;5032970;28;20033;-53
2023/12/19 08:25:18;;;;;;;9.30;4.27;;;6.70;99.90;;;;;;5015350;28;20037;-55
2023/12/19 08:27:44;;;;;;;10.53;4.57;;;6.70;99.90;;;;;;5032758;28;20368;-52
2023/12/19 08:30:10;;;;;;;10.70;5.40;;;6.70;99.90;;;;;;5032840;28;20033;-54
2023/12/19 08:32:36;;;;;;;12.40;4.57;;;6.70;99.90;;;;;;5032568;28;20113;-55
2023/12/19 08:35:02;;;;;;;10.60;4.73;;;6.70;99.90;;;;;;5032786;28;20068;-54
2023/12/19 08:37:28;;;;;;;11.03;4.90;;;6.70;99.90;;;;;;5032725;28;20036;-53
2023/12/19 08:39:56;;;;;;;11.60;5.27;;;6.60;99.90;;;;;;5032411;28;20474;-55
2023/12/19 08:42:23;;;;;;;11.80;4.72;;;6.70;99.90;;;;;;5014802;28;20040;-53
2023/12/19 08:44:53;;;;;;;9.93;4.33;;;6.70;99.90;;;;;;5033014;28;20478;-51
2023/12/19 08:47:18;;;;;;;12.97;5.27;;;6.70;99.90;;;;;;5032480;28;20029;-52
2023/12/19 08:49:44;;;;;;;9.57;4.43;;;6.90;99.90;;;;;;5032417;28;20030;-55
2023/12/19 08:52:13;;;;;;;11.80;4.73;;;7.00;99.90;;;;;;5032574;28;20124;-55
2023/12/19 08:54:38;;;;;;;10.23;5.13;;;7.10;99.90;;;;;;5032557;28;20051;-53
2023/12/19 08:57:05;;;;;;;13.30;5.00;;;7.10;99.90;;;;;;5032362;28;20638;-56
2023/12/19 08:59:31;;;;;;;10.60;4.47;;;7.10;99.90;;;;;;5031455;28;20068;-52
2023/12/19 09:01:57;;;;;;;10.27;4.60;;;7.10;99.90;;;;;;5032387;28;20026;-54
2023/12/19 09:04:23;;;;;;;8.53;4.33;;;7.10;99.90;;;;;;5032363;28;20031;-55
2023/12/19 09:06:49;;;;;;;9.97;4.47;;;7.10;99.90;;;;;;5032942;28;20037;-52
2023/12/19 09:09:15;;;;;;;9.97;4.43;;;7.10;99.90;;;;;;5032263;28;20466;-52
2023/12/19 09:11:41;;;;;;;9.27;4.67;;;7.10;99.90;;;;;;5031808;28;20064;-55
2023/12/19 09:14:07;;;;;;;11.07;5.07;;;7.10;99.90;;;;;;5032384;28;20040;-55
2023/12/19 09:16:33;;;;;;;14.13;5.43;;;7.10;99.90;;;;;;5032286;28;20022;-55
2023/12/19 09:19:02;;;;;;;12.83;5.27;;;7.10;99.90;;;;;;5031990;28;20041;-55
2023/12/19 09:21:27;;;;;;;10.50;4.40;;;7.20;99.90;;;;;;5032067;28;20566;-55
2023/12/19 09:23:53;;;;;;;10.80;4.70;;;7.20;99.90;;;;;;5032052;28;20116;-54
2023/12/19 09:26:19;;;;;;;12.10;3.90;;;7.10;99.90;;;;;;5032140;28;20030;-55
2023/12/19 09:28:45;;;;;;;10.83;4.73;;;7.10;99.90;;;;;;5031689;28;20032;-54
2023/12/19 09:31:11;;;;;;;10.57;4.23;;;7.10;99.90;;;;;;5031649;28;20574;-54
2023/12/19 09:33:38;;;;;;;10.20;4.43;;;7.20;99.90;;;;;;5031792;28;20394;-54
2023/12/19 09:36:07;;;;;;;13.30;4.90;;;7.30;99.90;;;;;;5031648;28;20037;-53
2023/12/19 09:38:32;;;;;;;10.20;4.40;;;7.30;99.90;;;;;;5013794;28;20429;-53
2023/12/19 09:40:58;;;;;;;23.33;9.57;;;7.30;99.90;;;;;;5031404;28;20079;-54
2023/12/19 09:43:23;;;;;;;9.13;3.90;;;7.40;99.90;;;;;;5031545;28;20029;-56
2023/12/19 09:45:50;;;;;;;7.20;3.67;;;7.30;99.90;;;;;;5031700;28;20030;-56
2023/12/19 09:48:16;;;;;;;9.13;3.07;;;7.40;99.90;;;;;;5031390;28;20044;-54
2023/12/19 09:50:43;;;;;;;9.33;3.57;;;7.40;99.90;;;;;;5031374;28;20029;-56
2023/12/19 09:53:10;;;;;;;7.67;3.60;;;7.40;99.90;;;;;;5031501;28;20026;-56
2023/12/19 09:55:43;;;;;;;9.87;3.77;;;7.30;99.90;;;;;;5031594;28;20493;-56
2023/12/19 09:58:10;;;;;;;8.63;3.60;;;7.40;99.90;;;;;;5031312;28;20037;-55
2023/12/19 10:00:39;;;;;;;8.90;3.57;;;7.50;99.90;;;;;;5031310;28;20036;-56
2023/12/19 10:03:05;;;;;;;8.10;3.38;;;7.50;99.90;;;;;;5031369;28;20056;-55
2023/12/19 10:05:31;;;;;;;11.57;3.93;;;7.50;99.90;;;;;;5031499;28;20025;-55
2023/12/19 10:07:59;;;;;;;7.57;3.40;;;7.50;99.90;;;;;;5031223;28;20037;-55
2023/12/19 10:10:54;;;;;;;9.00;3.97;;;7.50;99.90;;;;;;5031146;28;20152;-53
2023/12/19 10:13:33;;;;;;;8.40;3.67;;;7.50;99.90;;;;;;5031299;28;20120;-52
2023/12/19 10:16:00;;;;;;;10.20;5.40;;;7.50;99.90;;;;;;5031308;28;20441;-54
2023/12/19 10:18:28;;;;;;;8.43;4.20;;;7.40;99.90;;;;;;5031079;28;20042;-53
2023/12/19 10:21:08;;;;;;;13.00;4.93;;;7.40;99.90;;;;;;5031190;28;20080;-55
2023/12/19 10:23:34;;;;;;;12.70;4.72;;;7.40;99.90;;;;;;5032550;28;20120;-51
2023/12/19 10:26:00;;;;;;;9.80;3.90;;;7.30;99.90;;;;;;5034700;28;20126;-55
2023/12/19 10:28:26;;;;;;;10.13;3.53;;;7.30;99.90;;;;;;5034755;28;20382;-61
2023/12/19 10:31:15;;;;;;;12.23;4.53;;;7.30;99.90;;;;;;5034652;28;20033;-56
2023/12/19 10:33:49;;;;;;;8.10;3.78;;;7.30;99.90;;;;;;5035320;28;20037;-52
2023/12/19 10:36:28;;;;;;;8.77;4.27;;;7.30;99.90;;;;;;5034652;28;20040;-56
2023/12/19 10:38:55;;;;;;;10.10;4.33;;;7.30;99.90;;;;;;5034386;28;20112;-56
2023/12/19 10:41:37;;;;;;;6.93;3.20;;;7.20;99.90;;;;;;5034438;28;20486;-52
2023/12/19 10:44:04;;;;;;;9.77;3.80;;;7.10;99.90;;;;;;5034557;28;20025;-55
2023/12/19 10:46:31;;;;;;;9.77;3.17;;;7.10;99.90;;;;;;5034532;28;20406;-55
2023/12/19 10:48:59;;;;;;;11.10;4.87;;;7.20;99.90;;;;;;5034269;28;20514;-54
2023/12/19 10:51:32;;;;;;;9.27;4.03;;;7.20;99.90;;;;;;5034379;28;20120;-55
2023/12/19 10:54:08;;;;;;;11.23;4.47;;;7.10;99.90;;;;;;5034356;28;20391;-52
2023/12/19 10:57:02;;;;;;;11.43;4.87;;;7.10;99.90;;;;;;5034449;28;20048;-55
2023/12/19 10:59:30;;;;;;;12.80;5.00;;;7.10;99.90;;;;;;5034184;28;20483;-52
2023/12/19 11:02:19;;;;;;;8.13;4.03;;;7.20;99.90;;;;;;5034192;28;20479;-53
2023/12/19 11:04:50;;;;;;;;;;;7.10;99.90;;;;;;5020784;28;20087;-54
2023/12/19 11:07:17;;;;;;;11.77;5.30;;;7.10;99.90;;;;;;5034095;28;19908;-53
2023/12/19 11:09:49;;;;;;;10.73;4.50;;;7.10;99.90;;;;;;5033820;28;20025;-55
2023/12/19 11:12:15;;;;;;;14.47;6.53;;;7.10;99.90;;;;;;5034065;28;20052;-52
2023/12/19 11:14:41;;;;;;;12.67;6.17;;;7.20;99.90;;;;;;5034019;28;20131;-53
2023/12/19 11:17:15;;;;;;;14.50;6.60;;;7.20;99.90;;;;;;5033851;28;20541;-55
2023/12/19 11:19:59;;;;;;;10.37;4.87;;;7.20;99.90;;;;;;5033814;28;20079;-55
2023/12/19 11:22:40;;;;;;;9.60;4.47;;;7.20;99.90;;;;;;5033801;28;20049;-53
2023/12/19 11:25:20;;;;;;;11.17;4.47;;;7.20;99.90;;;;;;5033870;28;20065;-55
2023/12/19 11:28:00;;;;;;;9.57;4.53;;;7.20;99.90;;;;;;5033629;28;20555;-55
2023/12/19 11:30:36;;;;;;;10.63;4.57;;;7.20;99.90;;;;;;5033711;28;20241;-51
2023/12/19 11:33:11;;;;;;;12.93;5.53;;;7.20;99.90;;;;;;5033744;28;20050;-55
2023/12/19 11:35:36;;;;;;;8.83;5.17;;;7.20;99.90;;;;;;5033338;28;20021;-55
2023/12/19 11:38:21;;;;;;;9.53;4.20;;;7.20;99.90;;;;;;5033324;28;20398;-55
2023/12/19 11:40:47;;;;;;;9.57;4.33;;;7.20;99.90;;;;;;5033365;28;20065;-52
2023/12/19 11:43:28;;;;;;;11.83;4.80;;;7.20;99.90;;;;;;5033451;28;20032;-53
2023/12/19 11:46:15;;;;;;;8.17;4.17;;;7.20;99.90;;;;;;5033876;28;20061;-53
2023/12/19 11:48:49;;;;;;;8.20;4.17;;;7.30;99.90;;;;;;5033229;28;20087;-56
2023/12/19 11:51:46;;;;;;;8.23;4.30;;;7.20;99.90;;;;;;5033343;28;20056;-56
2023/12/19 11:54:13;;;;;;;9.00;4.43;;;7.20;99.90;;;;;;5033198;28;20060;-56
2023/12/19 11:56:42;;;;;;;8.83;4.73;;;7.20;99.90;;;;;;5033107;28;20482;-55
2023/12/19 11:59:08;;;;;;;8.82;3.88;;;7.20;99.90;;;;;;5033003;28;20057;-55
2023/12/19 12:01:44;;;;;;;8.70;3.97;;;7.20;99.90;;;;;;5033121;28;20487;-53
2023/12/19 12:04:10;;;;;;;11.27;3.90;;;7.20;99.90;;;;;;5033067;28;20029;-56
2023/12/19 12:06:41;;;;;;;8.50;3.40;;;7.10;99.90;;;;;;5032863;28;20046;-56
2023/12/19 12:09:06;;;;;;;8.57;3.20;;;7.10;99.90;;;;;;5032815;28;20044;-56
2023/12/19 12:11:51;;;;;;;7.13;3.17;;;7.10;99.90;;;;;;5032920;28;20116;-52
2023/12/19 12:14:16;;;;;;;6.83;2.77;;;7.10;99.90;;;;;;5032834;28;20691;-54
2023/12/19 12:16:42;;;;;;;9.27;3.30;;;7.10;99.90;;;;;;5032712;28;20064;-55
2023/12/19 12:19:15;;;;;;;9.13;3.57;;;7.10;99.90;;;;;;5032609;28;20096;-56
2023/12/19 12:21:51;;;;;;;9.10;3.70;;;7.10;99.90;;;;;;5032695;28;20026;-55
2023/12/19 12:24:21;;;;;;;9.47;4.17;;;7.10;99.90;;;;;;5033131;28;20057;-56
2023/12/19 12:26:51;;;;;;;9.57;4.60;;;7.10;99.90;;;;;;5032504;28;20108;-55
2023/12/19 12:29:19;;;;;;;11.37;4.70;;;7.10;99.90;;;;;;5032600;28;20490;-53
2023/12/19 12:31:48;;;;;;;8.87;4.47;;;7.10;99.90;;;;;;5032674;28;20060;-52
2023/12/19 12:34:14;;;;;;;10.27;4.40;;;7.10;99.90;;;;;;5032553;28;20478;-52
2023/12/19 12:36:51;;;;;;;10.27;5.13;;;7.10;99.90;;;;;;5032390;28;20516;-53
2023/12/19 12:39:20;;;;;;;13.33;5.80;;;7.00;99.90;;;;;;5032234;28;20041;-54
2023/12/19 12:41:46;;;;;;;10.98;5.60;;;7.10;99.90;;;;;;5032335;28;20057;-56
2023/12/19 12:44:12;;;;;;;11.67;5.50;;;7.10;99.90;;;;;;5032361;28;20482;-52
2023/12/19 12:46:45;;;;;;;10.83;4.90;;;7.10;99.90;;;;;;5031519;28;20108;-56
2023/12/19 12:49:15;;;;;;;9.17;4.77;;;7.00;99.90;;;;;;5032462;28;20389;-55